Detalii statie RANDUNICA PREST ANDRID [00001984]

Toti senzorii

Date Temperatura solului [C]Precipitatii [mm]Voltaj baterie [mV]Leaf Wetness [Min]HC Air temperature [C]HC Relative humidity [%]Punctul de roua [C]
medieminmaxsumaultimatimpmedieminmaxmediemediemin
2019-10-19 23:00:00 15 15 15.2 0 6854 14.04 13.32 14.88 0 0 0
2019-10-20 00:00:00 14.8 14.7 15 0 6834 14.1 13.4 14.59 0 0 0
2019-10-20 01:00:00 14.6 14.6 14.8 0 6826 12.85 11.49 14.88 0 0 0
2019-10-20 02:00:00 14.4 14.3 14.6 0 6834 11.22 10.72 12.07 0 0 0
2019-10-20 03:00:00 14.2 14.2 14.4 0 6826 11.09 10.67 11.98 0 0 0
2019-10-20 04:00:00 14 13.9 14.2 0 6826 10.45 9.52 11.13 0 0 0
2019-10-20 05:00:00 13.9 13.7 14.1 0 6816 9.43 8.9 10.34 0 0 0
2019-10-20 06:00:00 13.7 13.6 13.9 0 6816 9.75 8.93 10.26 0 0 0
2019-10-20 07:00:00 13.5 13.3 13.7 0 6816 8.82 7.93 9.92 0 0 0
2019-10-20 08:00:00 13.4 13.3 13.5 0 6806 8.31 8.1 8.82 0 0 0
2019-10-20 09:00:00 13.1 13 13.3 0 6884 11.62 9.02 13.75 0 0 0
2019-10-20 10:00:00 13.1 13 13.3 0 6992 16.09 14.03 18.52 0 0 0
2019-10-20 11:00:00 13.1 13 13.2 0 7186 20.84 19 22.21 0 0 0
2019-10-20 12:00:00 13.2 13.1 13.5 0 7264 23.34 22 24.22 0 0 0
2019-10-20 13:00:00 13.6 13.4 13.8 0 7264 25.17 24.62 25.81 0 0 0
2019-10-20 14:00:00 14.1 13.9 14.5 0 7264 26.03 25.77 26.19 0 0 0
2019-10-20 15:00:00 14.8 14.6 15.3 0 7264 26.18 26 26.35 0 0 0
2019-10-20 16:00:00 15.4 15.2 15.6 0 7264 25.7 25.4 26 0 0 0
2019-10-20 17:00:00 15.7 15.6 15.9 0 7158 23.92 22.21 25.27 0 0 0
2019-10-20 18:00:00 15.8 15.7 16 0 7030 20.65 19.35 21.9 0 0 0
2019-10-20 19:00:00 15.8 15.4 15.9 0 6982 17.77 16.96 18.6 0 0 0
2019-10-20 20:00:00 15.6 15.5 15.8 0 6914 17.57 17.22 17.88 0 0 0
2019-10-20 21:00:00 15.4 15.2 15.6 0 6904 17.24 16.92 17.4 0 0 0
2019-10-20 22:00:00 15.1 14.9 15.3 0 6884 14.75 13.22 16.96 0 0 0
2019-10-20 23:00:00 15 14.9 15.3 0 6874 14.57 13.63 15.37 0 0 0
2019-10-21 00:00:00 14.7 14.6 14.9 0 6874 14.5 14.1 15.19 0 0 0
2019-10-21 01:00:00 14.6 14.5 14.8 0 6864 13.83 12.23 15.12 0 0 0
2019-10-21 02:00:00 14.4 14.1 14.6 0 6874 12.21 10.31 13.68 0 0 0
2019-10-21 03:00:00 14.2 14.1 14.3 0 6864 10.63 10.01 11.49 0 0 0
2019-10-21 04:00:00 14.1 13.9 14.2 0 6864 9.87 8.93 10.99 0 0 0
2019-10-21 05:00:00 13.9 13.8 14.1 0 6854 9.06 8.55 9.62 0 0 0
2019-10-21 06:00:00 13.7 13.6 13.9 0 6844 8.62 8.03 9.2 0 0 0
2019-10-21 07:00:00 13.5 13.4 13.7 0 6844 9.92 9.09 10.72 0 0 0
2019-10-21 08:00:00 13.3 13.1 13.6 0 6834 11.41 10.87 12.47 0 0 0
2019-10-21 09:00:00 13.2 13 13.4 0 6922 12.69 12.29 13.26 0 0 0
2019-10-21 10:00:00 13.1 13 13.3 0 7040 16.26 13.66 18.55 0 0 0
2019-10-21 11:00:00 13.2 13.1 13.4 0 7264 20.57 18.88 21.83 0 0 0
2019-10-21 12:00:00 13.3 13.2 13.5 0 7264 22.54 21.86 23.43 0 0 0
2019-10-21 13:00:00 13.7 13.5 13.9 0 7264 25.25 23.81 26.3 0 0 0
2019-10-21 14:00:00 14.2 14 14.7 0 7254 26.6 26.18 26.98 0 0 0
2019-10-21 15:00:00 14.9 14.6 15.3 0 7264 26.64 26.37 26.97 0 0 0